sensor_id;sensor_type;location;lat;lon;timestamp;P1;durP1;ratioP1;P2;durP2;ratioP2
67156;SDS011;54086;50.126;8.710;2022-07-10T00:01:04;8.23;;;2.73;;
67156;SDS011;54086;50.126;8.710;2022-07-10T00:03:30;6.97;;;2.88;;
67156;SDS011;54086;50.126;8.710;2022-07-10T00:05:55;8.77;;;2.77;;
67156;SDS011;54086;50.126;8.710;2022-07-10T00:08:20;6.67;;;2.60;;
67156;SDS011;54086;50.126;8.710;2022-07-10T00:10:46;7.73;;;3.10;;
67156;SDS011;54086;50.126;8.710;2022-07-10T00:13:11;8.20;;;2.70;;
67156;SDS011;54086;50.126;8.710;2022-07-10T00:15:37;6.60;;;2.77;;
67156;SDS011;54086;50.126;8.710;2022-07-10T00:18:02;7.83;;;2.97;;
67156;SDS011;54086;50.126;8.710;2022-07-10T00:20:27;7.27;;;2.83;;
67156;SDS011;54086;50.126;8.710;2022-07-10T00:22:53;6.67;;;2.57;;
67156;SDS011;54086;50.126;8.710;2022-07-10T00:25:18;7.47;;;2.80;;
67156;SDS011;54086;50.126;8.710;2022-07-10T00:27:43;6.73;;;2.50;;
67156;SDS011;54086;50.126;8.710;2022-07-10T00:30:09;8.20;;;2.80;;
67156;SDS011;54086;50.126;8.710;2022-07-10T00:32:36;8.32;;;2.60;;
67156;SDS011;54086;50.126;8.710;2022-07-10T00:35:02;7.40;;;2.70;;
67156;SDS011;54086;50.126;8.710;2022-07-10T00:37:28;9.47;;;2.60;;
67156;SDS011;54086;50.126;8.710;2022-07-10T00:39:54;9.60;;;2.65;;
67156;SDS011;54086;50.126;8.710;2022-07-10T00:42:20;6.40;;;2.47;;
67156;SDS011;54086;50.126;8.710;2022-07-10T00:44:46;6.13;;;2.40;;
67156;SDS011;54086;50.126;8.710;2022-07-10T00:47:12;7.13;;;2.50;;
67156;SDS011;54086;50.126;8.710;2022-07-10T00:49:39;10.50;;;2.30;;
67156;SDS011;54086;50.126;8.710;2022-07-10T00:52:08;5.65;;;2.10;;
67156;SDS011;54086;50.126;8.710;2022-07-10T00:54:38;5.15;;;1.98;;
67156;SDS011;54086;50.126;8.710;2022-07-10T00:57:07;5.35;;;1.77;;
67156;SDS011;54086;50.126;8.710;2022-07-10T00:59:33;4.90;;;1.83;;
67156;SDS011;54086;50.126;8.710;2022-07-10T01:01:59;9.00;;;2.65;;
67156;SDS011;54086;50.126;8.710;2022-07-10T01:04:25;7.25;;;2.13;;
67156;SDS011;54086;50.126;8.710;2022-07-10T01:06:51;7.90;;;2.10;;
67156;SDS011;54086;50.126;8.710;2022-07-10T01:09:17;5.82;;;1.95;;
67156;SDS011;54086;50.126;8.710;2022-07-10T01:11:42;8.17;;;1.90;;
67156;SDS011;54086;50.126;8.710;2022-07-10T01:14:08;6.65;;;1.80;;
67156;SDS011;54086;50.126;8.710;2022-07-10T01:16:34;5.30;;;2.00;;
67156;SDS011;54086;50.126;8.710;2022-07-10T01:19:00;5.10;;;2.00;;
67156;SDS011;54086;50.126;8.710;2022-07-10T01:21:26;5.60;;;2.10;;
67156;SDS011;54086;50.126;8.710;2022-07-10T01:23:53;6.43;;;1.92;;
67156;SDS011;54086;50.126;8.710;2022-07-10T01:26:19;11.00;;;1.90;;
67156;SDS011;54086;50.126;8.710;2022-07-10T01:28:47;6.18;;;1.85;;
67156;SDS011;54086;50.126;8.710;2022-07-10T01:31:14;6.63;;;1.77;;
67156;SDS011;54086;50.126;8.710;2022-07-10T01:33:40;4.87;;;1.70;;
67156;SDS011;54086;50.126;8.710;2022-07-10T01:36:06;5.00;;;1.67;;
67156;SDS011;54086;50.126;8.710;2022-07-10T01:38:32;8.20;;;2.03;;
67156;SDS011;54086;50.126;8.710;2022-07-10T01:40:57;6.73;;;2.03;;
67156;SDS011;54086;50.126;8.710;2022-07-10T01:43:23;6.70;;;1.67;;
67156;SDS011;54086;50.126;8.710;2022-07-10T01:45:48;6.63;;;2.38;;
67156;SDS011;54086;50.126;8.710;2022-07-10T01:48:14;5.30;;;2.07;;
67156;SDS011;54086;50.126;8.710;2022-07-10T01:50:39;5.67;;;1.50;;
67156;SDS011;54086;50.126;8.710;2022-07-10T01:53:04;11.17;;;2.00;;
67156;SDS011;54086;50.126;8.710;2022-07-10T01:55:31;7.30;;;2.22;;
67156;SDS011;54086;50.126;8.710;2022-07-10T01:57:56;7.63;;;1.80;;
67156;SDS011;54086;50.126;8.710;2022-07-10T02:00:22;6.40;;;1.97;;
67156;SDS011;54086;50.126;8.710;2022-07-10T02:02:47;5.57;;;1.80;;
67156;SDS011;54086;50.126;8.710;2022-07-10T02:05:32;5.10;;;1.85;;
67156;SDS011;54086;50.126;8.710;2022-07-10T02:07:58;6.60;;;2.40;;
67156;SDS011;54086;50.126;8.710;2022-07-10T02:10:24;5.22;;;1.80;;
67156;SDS011;54086;50.126;8.710;2022-07-10T02:12:50;5.82;;;1.80;;
67156;SDS011;54086;50.126;8.710;2022-07-10T02:15:15;7.13;;;1.93;;
67156;SDS011;54086;50.126;8.710;2022-07-10T02:17:40;7.70;;;2.10;;
67156;SDS011;54086;50.126;8.710;2022-07-10T02:20:06;6.67;;;1.70;;
67156;SDS011;54086;50.126;8.710;2022-07-10T02:22:32;6.82;;;2.20;;
67156;SDS011;54086;50.126;8.710;2022-07-10T02:24:57;7.03;;;2.17;;
67156;SDS011;54086;50.126;8.710;2022-07-10T02:27:22;6.87;;;2.30;;
67156;SDS011;54086;50.126;8.710;2022-07-10T02:29:48;6.38;;;1.88;;
67156;SDS011;54086;50.126;8.710;2022-07-10T02:32:13;6.70;;;2.40;;
67156;SDS011;54086;50.126;8.710;2022-07-10T02:34:38;5.10;;;1.63;;
67156;SDS011;54086;50.126;8.710;2022-07-10T02:37:04;8.27;;;2.27;;
67156;SDS011;54086;50.126;8.710;2022-07-10T02:39:29;7.57;;;2.40;;
67156;SDS011;54086;50.126;8.710;2022-07-10T02:41:54;4.53;;;1.80;;
67156;SDS011;54086;50.126;8.710;2022-07-10T02:44:20;5.23;;;2.00;;
67156;SDS011;54086;50.126;8.710;2022-07-10T02:46:45;6.80;;;1.90;;
67156;SDS011;54086;50.126;8.710;2022-07-10T02:49:10;6.97;;;2.10;;
67156;SDS011;54086;50.126;8.710;2022-07-10T02:51:36;6.73;;;2.10;;
67156;SDS011;54086;50.126;8.710;2022-07-10T02:54:01;7.13;;;1.90;;
67156;SDS011;54086;50.126;8.710;2022-07-10T02:56:27;7.20;;;2.10;;
67156;SDS011;54086;50.126;8.710;2022-07-10T02:58:53;5.87;;;1.90;;
67156;SDS011;54086;50.126;8.710;2022-07-10T03:01:18;5.43;;;1.50;;
67156;SDS011;54086;50.126;8.710;2022-07-10T03:03:43;4.97;;;1.50;;
67156;SDS011;54086;50.126;8.710;2022-07-10T03:06:09;6.37;;;1.80;;
67156;SDS011;54086;50.126;8.710;2022-07-10T03:08:34;6.43;;;1.70;;
67156;SDS011;54086;50.126;8.710;2022-07-10T03:11:00;5.78;;;2.08;;
67156;SDS011;54086;50.126;8.710;2022-07-10T03:13:25;9.20;;;2.00;;
67156;SDS011;54086;50.126;8.710;2022-07-10T03:15:53;6.53;;;2.00;;
67156;SDS011;54086;50.126;8.710;2022-07-10T03:18:19;8.00;;;2.13;;
67156;SDS011;54086;50.126;8.710;2022-07-10T03:20:44;5.10;;;1.70;;
67156;SDS011;54086;50.126;8.710;2022-07-10T03:23:09;6.10;;;1.77;;
67156;SDS011;54086;50.126;8.710;2022-07-10T03:25:35;6.23;;;2.10;;
67156;SDS011;54086;50.126;8.710;2022-07-10T03:28:00;7.77;;;1.87;;
67156;SDS011;54086;50.126;8.710;2022-07-10T03:30:25;7.30;;;2.10;;
67156;SDS011;54086;50.126;8.710;2022-07-10T03:32:51;7.43;;;1.87;;
67156;SDS011;54086;50.126;8.710;2022-07-10T03:35:16;8.73;;;1.90;;
67156;SDS011;54086;50.126;8.710;2022-07-10T03:37:42;5.33;;;2.33;;
67156;SDS011;54086;50.126;8.710;2022-07-10T03:40:08;5.78;;;1.70;;
67156;SDS011;54086;50.126;8.710;2022-07-10T03:42:33;7.78;;;1.80;;
67156;SDS011;54086;50.126;8.710;2022-07-10T03:44:59;7.73;;;2.17;;
67156;SDS011;54086;50.126;8.710;2022-07-10T03:47:25;6.80;;;1.90;;
67156;SDS011;54086;50.126;8.710;2022-07-10T03:49:50;5.50;;;1.73;;
67156;SDS011;54086;50.126;8.710;2022-07-10T03:52:16;6.57;;;2.00;;
67156;SDS011;54086;50.126;8.710;2022-07-10T03:54:41;7.70;;;2.03;;
67156;SDS011;54086;50.126;8.710;2022-07-10T03:57:07;6.77;;;1.83;;
67156;SDS011;54086;50.126;8.710;2022-07-10T03:59:51;6.95;;;2.22;;
67156;SDS011;54086;50.126;8.710;2022-07-10T04:02:16;7.17;;;1.90;;
67156;SDS011;54086;50.126;8.710;2022-07-10T04:04:41;7.03;;;2.10;;
67156;SDS011;54086;50.126;8.710;2022-07-10T04:07:07;7.37;;;1.90;;
67156;SDS011;54086;50.126;8.710;2022-07-10T04:09:32;7.82;;;1.92;;
67156;SDS011;54086;50.126;8.710;2022-07-10T04:11:58;6.40;;;1.90;;
67156;SDS011;54086;50.126;8.710;2022-07-10T04:14:23;4.87;;;1.70;;
67156;SDS011;54086;50.126;8.710;2022-07-10T04:16:49;5.93;;;1.90;;
67156;SDS011;54086;50.126;8.710;2022-07-10T04:19:14;7.32;;;2.00;;
67156;SDS011;54086;50.126;8.710;2022-07-10T04:21:40;6.47;;;2.17;;
67156;SDS011;54086;50.126;8.710;2022-07-10T04:24:05;6.67;;;1.90;;
67156;SDS011;54086;50.126;8.710;2022-07-10T04:26:31;6.77;;;2.00;;
67156;SDS011;54086;50.126;8.710;2022-07-10T04:28:56;6.03;;;1.60;;
67156;SDS011;54086;50.126;8.710;2022-07-10T04:31:21;6.60;;;1.70;;
67156;SDS011;54086;50.126;8.710;2022-07-10T04:33:47;6.47;;;1.70;;
67156;SDS011;54086;50.126;8.710;2022-07-10T04:36:13;3.55;;;1.48;;
67156;SDS011;54086;50.126;8.710;2022-07-10T04:38:38;6.10;;;1.60;;
67156;SDS011;54086;50.126;8.710;2022-07-10T04:41:03;7.35;;;1.65;;
67156;SDS011;54086;50.126;8.710;2022-07-10T04:43:30;7.23;;;1.73;;
67156;SDS011;54086;50.126;8.710;2022-07-10T04:45:55;5.95;;;1.40;;
67156;SDS011;54086;50.126;8.710;2022-07-10T04:48:21;7.30;;;1.73;;
67156;SDS011;54086;50.126;8.710;2022-07-10T04:50:46;4.55;;;1.40;;
67156;SDS011;54086;50.126;8.710;2022-07-10T04:53:12;6.87;;;1.53;;
67156;SDS011;54086;50.126;8.710;2022-07-10T04:55:37;8.23;;;1.87;;
67156;SDS011;54086;50.126;8.710;2022-07-10T04:58:03;7.60;;;1.43;;
67156;SDS011;54086;50.126;8.710;2022-07-10T05:00:28;6.67;;;1.63;;
67156;SDS011;54086;50.126;8.710;2022-07-10T05:02:53;5.78;;;1.45;;
67156;SDS011;54086;50.126;8.710;2022-07-10T05:05:19;6.53;;;1.30;;
67156;SDS011;54086;50.126;8.710;2022-07-10T05:07:44;9.73;;;2.40;;
67156;SDS011;54086;50.126;8.710;2022-07-10T05:10:09;5.77;;;1.77;;
67156;SDS011;54086;50.126;8.710;2022-07-10T05:12:35;5.47;;;1.30;;
67156;SDS011;54086;50.126;8.710;2022-07-10T05:15:00;4.70;;;1.60;;
67156;SDS011;54086;50.126;8.710;2022-07-10T05:17:27;4.32;;;1.50;;
67156;SDS011;54086;50.126;8.710;2022-07-10T05:19:53;7.57;;;1.40;;
67156;SDS011;54086;50.126;8.710;2022-07-10T05:22:21;6.40;;;1.63;;
67156;SDS011;54086;50.126;8.710;2022-07-10T05:24:46;7.15;;;1.40;;
67156;SDS011;54086;50.126;8.710;2022-07-10T05:27:12;3.88;;;1.45;;
67156;SDS011;54086;50.126;8.710;2022-07-10T05:29:38;5.57;;;1.17;;
67156;SDS011;54086;50.126;8.710;2022-07-10T05:32:03;6.03;;;1.50;;
67156;SDS011;54086;50.126;8.710;2022-07-10T05:34:29;4.95;;;1.70;;
67156;SDS011;54086;50.126;8.710;2022-07-10T05:36:54;6.33;;;1.30;;
67156;SDS011;54086;50.126;8.710;2022-07-10T05:39:20;4.60;;;1.40;;
67156;SDS011;54086;50.126;8.710;2022-07-10T05:41:45;5.70;;;1.20;;
67156;SDS011;54086;50.126;8.710;2022-07-10T05:44:10;4.35;;;1.23;;
67156;SDS011;54086;50.126;8.710;2022-07-10T05:46:36;5.40;;;1.30;;
67156;SDS011;54086;50.126;8.710;2022-07-10T05:49:01;5.33;;;1.40;;
67156;SDS011;54086;50.126;8.710;2022-07-10T05:51:27;4.67;;;1.30;;
67156;SDS011;54086;50.126;8.710;2022-07-10T05:53:52;4.47;;;1.08;;
67156;SDS011;54086;50.126;8.710;2022-07-10T05:56:17;4.07;;;1.30;;
67156;SDS011;54086;50.126;8.710;2022-07-10T05:58:43;7.87;;;2.00;;
67156;SDS011;54086;50.126;8.710;2022-07-10T06:01:08;4.37;;;1.27;;
67156;SDS011;54086;50.126;8.710;2022-07-10T06:03:34;4.37;;;1.30;;
67156;SDS011;54086;50.126;8.710;2022-07-10T06:06:00;3.63;;;1.08;;
67156;SDS011;54086;50.126;8.710;2022-07-10T06:08:25;4.93;;;1.58;;
67156;SDS011;54086;50.126;8.710;2022-07-10T06:10:51;5.60;;;1.10;;
67156;SDS011;54086;50.126;8.710;2022-07-10T06:13:16;4.17;;;1.20;;
67156;SDS011;54086;50.126;8.710;2022-07-10T06:15:42;6.67;;;2.00;;
67156;SDS011;54086;50.126;8.710;2022-07-10T06:18:07;4.78;;;1.25;;
67156;SDS011;54086;50.126;8.710;2022-07-10T06:20:33;5.27;;;1.30;;
67156;SDS011;54086;50.126;8.710;2022-07-10T06:22:58;6.27;;;1.40;;
67156;SDS011;54086;50.126;8.710;2022-07-10T06:25:23;4.00;;;1.13;;
67156;SDS011;54086;50.126;8.710;2022-07-10T06:27:49;4.30;;;1.25;;
67156;SDS011;54086;50.126;8.710;2022-07-10T06:30:14;5.20;;;1.20;;
67156;SDS011;54086;50.126;8.710;2022-07-10T06:32:40;6.72;;;1.40;;
67156;SDS011;54086;50.126;8.710;2022-07-10T06:35:06;5.37;;;1.30;;
67156;SDS011;54086;50.126;8.710;2022-07-10T06:37:32;5.85;;;1.80;;
67156;SDS011;54086;50.126;8.710;2022-07-10T06:39:58;4.25;;;1.08;;
67156;SDS011;54086;50.126;8.710;2022-07-10T06:42:23;4.47;;;1.27;;
67156;SDS011;54086;50.126;8.710;2022-07-10T06:44:48;4.30;;;1.10;;
67156;SDS011;54086;50.126;8.710;2022-07-10T06:47:15;3.73;;;0.93;;
67156;SDS011;54086;50.126;8.710;2022-07-10T06:50:01;4.28;;;1.23;;
67156;SDS011;54086;50.126;8.710;2022-07-10T06:52:31;5.50;;;1.20;;
67156;SDS011;54086;50.126;8.710;2022-07-10T06:55:00;4.15;;;1.10;;
67156;SDS011;54086;50.126;8.710;2022-07-10T06:57:26;4.75;;;1.30;;
67156;SDS011;54086;50.126;8.710;2022-07-10T06:59:51;5.47;;;1.13;;
67156;SDS011;54086;50.126;8.710;2022-07-10T07:02:17;4.82;;;1.17;;
67156;SDS011;54086;50.126;8.710;2022-07-10T07:04:43;3.87;;;0.90;;
67156;SDS011;54086;50.126;8.710;2022-07-10T07:07:10;3.97;;;1.02;;
67156;SDS011;54086;50.126;8.710;2022-07-10T07:09:36;4.15;;;1.10;;
67156;SDS011;54086;50.126;8.710;2022-07-10T07:12:02;4.77;;;1.40;;
67156;SDS011;54086;50.126;8.710;2022-07-10T07:14:28;4.80;;;1.13;;
67156;SDS011;54086;50.126;8.710;2022-07-10T07:16:54;3.07;;;1.23;;
67156;SDS011;54086;50.126;8.710;2022-07-10T07:19:25;4.55;;;1.33;;
67156;SDS011;54086;50.126;8.710;2022-07-10T07:21:59;5.30;;;1.50;;
67156;SDS011;54086;50.126;8.710;2022-07-10T07:24:43;4.78;;;1.20;;
67156;SDS011;54086;50.126;8.710;2022-07-10T07:27:09;5.00;;;1.37;;
67156;SDS011;54086;50.126;8.710;2022-07-10T07:29:35;4.15;;;1.38;;
67156;SDS011;54086;50.126;8.710;2022-07-10T07:32:00;5.03;;;1.13;;
67156;SDS011;54086;50.126;8.710;2022-07-10T07:34:25;6.83;;;1.27;;
67156;SDS011;54086;50.126;8.710;2022-07-10T07:36:51;5.60;;;1.30;;
67156;SDS011;54086;50.126;8.710;2022-07-10T07:39:16;6.40;;;1.30;;
67156;SDS011;54086;50.126;8.710;2022-07-10T07:41:42;4.37;;;1.37;;
67156;SDS011;54086;50.126;8.710;2022-07-10T07:44:07;5.90;;;1.10;;
67156;SDS011;54086;50.126;8.710;2022-07-10T07:46:32;6.40;;;1.25;;
67156;SDS011;54086;50.126;8.710;2022-07-10T07:48:58;4.00;;;1.10;;
67156;SDS011;54086;50.126;8.710;2022-07-10T07:51:25;6.22;;;1.58;;
67156;SDS011;54086;50.126;8.710;2022-07-10T07:53:50;5.23;;;1.50;;
67156;SDS011;54086;50.126;8.710;2022-07-10T07:56:15;3.73;;;1.00;;
67156;SDS011;54086;50.126;8.710;2022-07-10T07:58:41;4.28;;;1.25;;
67156;SDS011;54086;50.126;8.710;2022-07-10T08:01:07;4.07;;;1.23;;
67156;SDS011;54086;50.126;8.710;2022-07-10T08:03:32;5.47;;;1.20;;
67156;SDS011;54086;50.126;8.710;2022-07-10T08:05:57;4.82;;;1.20;;
67156;SDS011;54086;50.126;8.710;2022-07-10T08:08:23;4.67;;;1.50;;
67156;SDS011;54086;50.126;8.710;2022-07-10T08:10:48;5.37;;;1.37;;
67156;SDS011;54086;50.126;8.710;2022-07-10T08:13:14;5.80;;;1.00;;
67156;SDS011;54086;50.126;8.710;2022-07-10T08:15:39;7.13;;;1.30;;
67156;SDS011;54086;50.126;8.710;2022-07-10T08:18:05;5.80;;;1.30;;
67156;SDS011;54086;50.126;8.710;2022-07-10T08:20:32;5.55;;;1.10;;
67156;SDS011;54086;50.126;8.710;2022-07-10T08:22:57;4.37;;;1.30;;
67156;SDS011;54086;50.126;8.710;2022-07-10T08:25:23;6.30;;;1.60;;
67156;SDS011;54086;50.126;8.710;2022-07-10T08:27:49;4.70;;;1.27;;
67156;SDS011;54086;50.126;8.710;2022-07-10T08:30:14;5.43;;;1.65;;
67156;SDS011;54086;50.126;8.710;2022-07-10T08:32:40;5.73;;;1.40;;
67156;SDS011;54086;50.126;8.710;2022-07-10T08:35:06;4.95;;;1.50;;
67156;SDS011;54086;50.126;8.710;2022-07-10T08:37:39;6.47;;;1.67;;
67156;SDS011;54086;50.126;8.710;2022-07-10T08:40:07;4.63;;;1.30;;
67156;SDS011;54086;50.126;8.710;2022-07-10T08:42:34;4.03;;;1.38;;
67156;SDS011;54086;50.126;8.710;2022-07-10T08:45:00;5.85;;;1.65;;
67156;SDS011;54086;50.126;8.710;2022-07-10T08:47:25;5.73;;;1.30;;
67156;SDS011;54086;50.126;8.710;2022-07-10T08:49:52;7.27;;;1.50;;
67156;SDS011;54086;50.126;8.710;2022-07-10T08:52:30;7.18;;;1.50;;
67156;SDS011;54086;50.126;8.710;2022-07-10T08:54:59;4.80;;;1.30;;
67156;SDS011;54086;50.126;8.710;2022-07-10T08:57:24;4.97;;;1.30;;
67156;SDS011;54086;50.126;8.710;2022-07-10T08:59:51;6.15;;;1.45;;
67156;SDS011;54086;50.126;8.710;2022-07-10T09:02:17;6.60;;;1.50;;
67156;SDS011;54086;50.126;8.710;2022-07-10T09:04:42;3.72;;;1.42;;
67156;SDS011;54086;50.126;8.710;2022-07-10T09:07:08;5.33;;;1.13;;
67156;SDS011;54086;50.126;8.710;2022-07-10T09:12:20;6.30;;;1.52;;
67156;SDS011;54086;50.126;8.710;2022-07-10T09:14:50;6.87;;;1.50;;
67156;SDS011;54086;50.126;8.710;2022-07-10T09:17:17;7.07;;;1.70;;
67156;SDS011;54086;50.126;8.710;2022-07-10T09:19:43;4.55;;;1.40;;
67156;SDS011;54086;50.126;8.710;2022-07-10T09:22:10;6.38;;;1.38;;
67156;SDS011;54086;50.126;8.710;2022-07-10T09:24:42;6.38;;;1.40;;
67156;SDS011;54086;50.126;8.710;2022-07-10T09:27:10;6.17;;;1.30;;
67156;SDS011;54086;50.126;8.710;2022-07-10T09:29:47;8.30;;;1.55;;
67156;SDS011;54086;50.126;8.710;2022-07-10T09:32:17;6.93;;;1.60;;
67156;SDS011;54086;50.126;8.710;2022-07-10T09:34:49;5.82;;;1.45;;
67156;SDS011;54086;50.126;8.710;2022-07-10T09:37:38;5.07;;;1.10;;
67156;SDS011;54086;50.126;8.710;2022-07-10T09:40:05;4.30;;;1.50;;
67156;SDS011;54086;50.126;8.710;2022-07-10T09:50:03;4.60;;;1.20;;
67156;SDS011;54086;50.126;8.710;2022-07-10T09:52:29;5.53;;;1.30;;
67156;SDS011;54086;50.126;8.710;2022-07-10T09:54:56;7.30;;;1.80;;
67156;SDS011;54086;50.126;8.710;2022-07-10T09:57:23;7.55;;;1.73;;
67156;SDS011;54086;50.126;8.710;2022-07-10T09:59:53;5.40;;;1.33;;
67156;SDS011;54086;50.126;8.710;2022-07-10T10:02:20;6.28;;;1.52;;
67156;SDS011;54086;50.126;8.710;2022-07-10T10:04:46;5.63;;;1.60;;
67156;SDS011;54086;50.126;8.710;2022-07-10T10:07:14;5.35;;;1.40;;
67156;SDS011;54086;50.126;8.710;2022-07-10T10:09:48;8.02;;;1.85;;
67156;SDS011;54086;50.126;8.710;2022-07-10T10:12:28;5.03;;;1.53;;
67156;SDS011;54086;50.126;8.710;2022-07-10T10:14:59;5.03;;;1.50;;
67156;SDS011;54086;50.126;8.710;2022-07-10T10:17:25;7.32;;;1.77;;
67156;SDS011;54086;50.126;8.710;2022-07-10T10:19:53;7.40;;;1.70;;
67156;SDS011;54086;50.126;8.710;2022-07-10T10:22:42;6.65;;;1.70;;
67156;SDS011;54086;50.126;8.710;2022-07-10T10:25:09;5.33;;;1.60;;
67156;SDS011;54086;50.126;8.710;2022-07-10T10:27:35;7.50;;;1.80;;
67156;SDS011;54086;50.126;8.710;2022-07-10T10:30:01;7.82;;;2.00;;
67156;SDS011;54086;50.126;8.710;2022-07-10T10:32:27;7.30;;;2.00;;
67156;SDS011;54086;50.126;8.710;2022-07-10T10:34:53;5.47;;;1.63;;
67156;SDS011;54086;50.126;8.710;2022-07-10T10:37:35;6.32;;;1.70;;
67156;SDS011;54086;50.126;8.710;2022-07-10T10:40:02;6.47;;;1.73;;
67156;SDS011;54086;50.126;8.710;2022-07-10T10:42:47;6.47;;;1.90;;
67156;SDS011;54086;50.126;8.710;2022-07-10T10:48:02;7.40;;;1.90;;
67156;SDS011;54086;50.126;8.710;2022-07-10T10:53:26;6.57;;;1.98;;
67156;SDS011;54086;50.126;8.710;2022-07-10T10:58:27;5.53;;;1.60;;
67156;SDS011;54086;50.126;8.710;2022-07-10T11:01:03;5.10;;;1.77;;
67156;SDS011;54086;50.126;8.710;2022-07-10T11:03:29;6.45;;;1.77;;
67156;SDS011;54086;50.126;8.710;2022-07-10T11:05:55;6.78;;;2.10;;
67156;SDS011;54086;50.126;8.710;2022-07-10T11:08:37;6.23;;;1.60;;
67156;SDS011;54086;50.126;8.710;2022-07-10T11:11:50;10.20;;;2.17;;
67156;SDS011;54086;50.126;8.710;2022-07-10T11:13:57;7.45;;;2.08;;
67156;SDS011;54086;50.126;8.710;2022-07-10T11:16:22;6.33;;;2.00;;
67156;SDS011;54086;50.126;8.710;2022-07-10T11:18:52;5.85;;;1.80;;
67156;SDS011;54086;50.126;8.710;2022-07-10T11:21:22;6.82;;;1.70;;
67156;SDS011;54086;50.126;8.710;2022-07-10T11:26:40;6.57;;;1.90;;
67156;SDS011;54086;50.126;8.710;2022-07-10T11:29:17;5.47;;;1.60;;
67156;SDS011;54086;50.126;8.710;2022-07-10T11:31:43;7.43;;;2.10;;
67156;SDS011;54086;50.126;8.710;2022-07-10T11:34:17;7.93;;;1.77;;
67156;SDS011;54086;50.126;8.710;2022-07-10T11:36:43;9.43;;;2.43;;
67156;SDS011;54086;50.126;8.710;2022-07-10T11:39:08;8.17;;;1.70;;
67156;SDS011;54086;50.126;8.710;2022-07-10T11:41:34;6.28;;;1.75;;
67156;SDS011;54086;50.126;8.710;2022-07-10T11:44:12;6.20;;;1.70;;
67156;SDS011;54086;50.126;8.710;2022-07-10T11:46:39;7.75;;;2.05;;
67156;SDS011;54086;50.126;8.710;2022-07-10T11:49:05;6.15;;;1.63;;
67156;SDS011;54086;50.126;8.710;2022-07-10T11:51:33;7.07;;;2.03;;
67156;SDS011;54086;50.126;8.710;2022-07-10T11:54:03;7.38;;;1.80;;
67156;SDS011;54086;50.126;8.710;2022-07-10T11:56:34;9.63;;;1.80;;
67156;SDS011;54086;50.126;8.710;2022-07-10T12:01:34;5.60;;;1.52;;
67156;SDS011;54086;50.126;8.710;2022-07-10T12:04:06;7.20;;;1.80;;
67156;SDS011;54086;50.126;8.710;2022-07-10T12:06:34;6.25;;;2.20;;
67156;SDS011;54086;50.126;8.710;2022-07-10T12:09:03;7.30;;;1.57;;
67156;SDS011;54086;50.126;8.710;2022-07-10T12:11:30;7.05;;;1.80;;
67156;SDS011;54086;50.126;8.710;2022-07-10T12:14:09;7.00;;;2.80;;
67156;SDS011;54086;50.126;8.710;2022-07-10T12:16:45;7.35;;;2.17;;
67156;SDS011;54086;50.126;8.710;2022-07-10T12:19:24;5.20;;;1.70;;
67156;SDS011;54086;50.126;8.710;2022-07-10T12:21:52;4.45;;;1.70;;
67156;SDS011;54086;50.126;8.710;2022-07-10T12:24:18;6.28;;;1.65;;
67156;SDS011;54086;50.126;8.710;2022-07-10T12:26:49;5.82;;;1.58;;
67156;SDS011;54086;50.126;8.710;2022-07-10T12:31:46;7.07;;;1.97;;
67156;SDS011;54086;50.126;8.710;2022-07-10T12:34:12;6.55;;;1.58;;
67156;SDS011;54086;50.126;8.710;2022-07-10T12:36:45;5.25;;;1.85;;
67156;SDS011;54086;50.126;8.710;2022-07-10T12:39:16;7.05;;;2.15;;
67156;SDS011;54086;50.126;8.710;2022-07-10T12:41:52;7.13;;;1.85;;
67156;SDS011;54086;50.126;8.710;2022-07-10T12:52:24;5.20;;;1.55;;
67156;SDS011;54086;50.126;8.710;2022-07-10T12:57:48;8.13;;;1.57;;
67156;SDS011;54086;50.126;8.710;2022-07-10T13:00:15;5.63;;;1.63;;
67156;SDS011;54086;50.126;8.710;2022-07-10T13:02:44;5.50;;;1.60;;
67156;SDS011;54086;50.126;8.710;2022-07-10T13:05:10;5.40;;;1.73;;
67156;SDS011;54086;50.126;8.710;2022-07-10T13:07:36;6.37;;;1.93;;
67156;SDS011;54086;50.126;8.710;2022-07-10T13:10:05;4.65;;;1.52;;
67156;SDS011;54086;50.126;8.710;2022-07-10T13:12:35;6.22;;;1.80;;
67156;SDS011;54086;50.126;8.710;2022-07-10T13:15:03;6.20;;;1.40;;
67156;SDS011;54086;50.126;8.710;2022-07-10T13:17:29;5.65;;;2.08;;
67156;SDS011;54086;50.126;8.710;2022-07-10T13:19:55;7.72;;;2.10;;
67156;SDS011;54086;50.126;8.710;2022-07-10T13:22:21;5.57;;;1.90;;
67156;SDS011;54086;50.126;8.710;2022-07-10T13:24:47;3.67;;;1.60;;
67156;SDS011;54086;50.126;8.710;2022-07-10T13:27:13;4.88;;;1.80;;
67156;SDS011;54086;50.126;8.710;2022-07-10T13:29:39;8.27;;;2.63;;
67156;SDS011;54086;50.126;8.710;2022-07-10T13:32:04;6.90;;;2.40;;
67156;SDS011;54086;50.126;8.710;2022-07-10T13:34:30;5.32;;;1.48;;
67156;SDS011;54086;50.126;8.710;2022-07-10T13:36:56;5.20;;;1.70;;
67156;SDS011;54086;50.126;8.710;2022-07-10T13:39:21;6.35;;;1.95;;
67156;SDS011;54086;50.126;8.710;2022-07-10T13:41:47;5.03;;;1.80;;
67156;SDS011;54086;50.126;8.710;2022-07-10T13:44:12;6.53;;;1.73;;
67156;SDS011;54086;50.126;8.710;2022-07-10T13:46:38;6.23;;;1.80;;
67156;SDS011;54086;50.126;8.710;2022-07-10T13:49:05;4.25;;;1.50;;
67156;SDS011;54086;50.126;8.710;2022-07-10T13:51:30;5.95;;;1.85;;
67156;SDS011;54086;50.126;8.710;2022-07-10T13:53:56;5.43;;;1.67;;
67156;SDS011;54086;50.126;8.710;2022-07-10T13:56:22;8.15;;;1.90;;
67156;SDS011;54086;50.126;8.710;2022-07-10T13:58:48;6.68;;;1.70;;
67156;SDS011;54086;50.126;8.710;2022-07-10T14:01:14;6.20;;;1.83;;
67156;SDS011;54086;50.126;8.710;2022-07-10T14:03:39;8.30;;;2.03;;
67156;SDS011;54086;50.126;8.710;2022-07-10T14:06:04;6.07;;;1.80;;
67156;SDS011;54086;50.126;8.710;2022-07-10T14:08:30;4.20;;;1.45;;
67156;SDS011;54086;50.126;8.710;2022-07-10T14:10:56;6.17;;;2.00;;
67156;SDS011;54086;50.126;8.710;2022-07-10T14:13:21;6.25;;;2.22;;
67156;SDS011;54086;50.126;8.710;2022-07-10T14:15:47;5.83;;;2.10;;
67156;SDS011;54086;50.126;8.710;2022-07-10T14:18:13;5.43;;;2.13;;
67156;SDS011;54086;50.126;8.710;2022-07-10T14:20:38;5.23;;;1.80;;
67156;SDS011;54086;50.126;8.710;2022-07-10T14:23:22;5.60;;;2.10;;
67156;SDS011;54086;50.126;8.710;2022-07-10T14:25:48;5.17;;;1.93;;
67156;SDS011;54086;50.126;8.710;2022-07-10T14:28:13;6.13;;;1.80;;
67156;SDS011;54086;50.126;8.710;2022-07-10T14:30:39;5.37;;;1.77;;
67156;SDS011;54086;50.126;8.710;2022-07-10T14:33:05;4.22;;;1.70;;
67156;SDS011;54086;50.126;8.710;2022-07-10T14:35:32;5.75;;;1.58;;
67156;SDS011;54086;50.126;8.710;2022-07-10T14:37:57;4.00;;;1.23;;
67156;SDS011;54086;50.126;8.710;2022-07-10T14:40:23;3.80;;;1.25;;
67156;SDS011;54086;50.126;8.710;2022-07-10T14:42:48;5.70;;;1.60;;
67156;SDS011;54086;50.126;8.710;2022-07-10T14:45:13;6.07;;;1.77;;
67156;SDS011;54086;50.126;8.710;2022-07-10T14:47:39;4.97;;;1.42;;
67156;SDS011;54086;50.126;8.710;2022-07-10T14:50:04;7.10;;;1.50;;
67156;SDS011;54086;50.126;8.710;2022-07-10T14:52:31;4.30;;;1.17;;
67156;SDS011;54086;50.126;8.710;2022-07-10T14:54:58;3.90;;;1.13;;
67156;SDS011;54086;50.126;8.710;2022-07-10T14:57:23;5.35;;;1.35;;
67156;SDS011;54086;50.126;8.710;2022-07-10T14:59:49;7.27;;;2.83;;
67156;SDS011;54086;50.126;8.710;2022-07-10T15:02:14;6.07;;;1.87;;
67156;SDS011;54086;50.126;8.710;2022-07-10T15:04:39;3.67;;;1.50;;
67156;SDS011;54086;50.126;8.710;2022-07-10T15:07:05;7.03;;;1.60;;
67156;SDS011;54086;50.126;8.710;2022-07-10T15:09:30;5.73;;;1.50;;
67156;SDS011;54086;50.126;8.710;2022-07-10T15:11:56;3.50;;;1.40;;
67156;SDS011;54086;50.126;8.710;2022-07-10T15:14:21;6.30;;;1.33;;
67156;SDS011;54086;50.126;8.710;2022-07-10T15:16:47;5.00;;;1.17;;
67156;SDS011;54086;50.126;8.710;2022-07-10T15:19:12;4.97;;;1.37;;
67156;SDS011;54086;50.126;8.710;2022-07-10T15:21:37;10.77;;;1.50;;
67156;SDS011;54086;50.126;8.710;2022-07-10T15:24:03;4.73;;;1.30;;